sensor_id;sensor_type;location;lat;lon;timestamp;temperature;humidity
6118;DHT22;3089;48.202;11.510;2023-04-01T00:00:34;8.10;99.90
6118;DHT22;3089;48.202;11.510;2023-04-01T00:03:02;8.10;99.90
6118;DHT22;3089;48.202;11.510;2023-04-01T00:05:30;8.20;99.90
6118;DHT22;3089;48.202;11.510;2023-04-01T00:07:59;8.10;99.90
6118;DHT22;3089;48.202;11.510;2023-04-01T00:10:27;8.10;99.90
6118;DHT22;3089;48.202;11.510;2023-04-01T00:12:55;8.10;99.90
6118;DHT22;3089;48.202;11.510;2023-04-01T00:15:22;8.10;99.90
6118;DHT22;3089;48.202;11.510;2023-04-01T00:17:52;8.10;99.90
6118;DHT22;3089;48.202;11.510;2023-04-01T00:20:21;8.00;99.90
6118;DHT22;3089;48.202;11.510;2023-04-01T00:22:49;8.10;99.90
6118;DHT22;3089;48.202;11.510;2023-04-01T00:25:17;8.10;99.90
6118;DHT22;3089;48.202;11.510;2023-04-01T00:27:45;8.00;99.90
6118;DHT22;3089;48.202;11.510;2023-04-01T00:30:13;8.00;99.90
6118;DHT22;3089;48.202;11.510;2023-04-01T00:32:42;8.00;99.90
6118;DHT22;3089;48.202;11.510;2023-04-01T00:35:11;7.90;99.90
6118;DHT22;3089;48.202;11.510;2023-04-01T00:37:39;8.00;99.90
6118;DHT22;3089;48.202;11.510;2023-04-01T00:40:24;7.90;99.90
6118;DHT22;3089;48.202;11.510;2023-04-01T00:42:52;7.90;99.90
6118;DHT22;3089;48.202;11.510;2023-04-01T00:45:27;7.90;99.90
6118;DHT22;3089;48.202;11.510;2023-04-01T00:47:55;7.90;99.90
6118;DHT22;3089;48.202;11.510;2023-04-01T00:50:26;7.90;99.90
6118;DHT22;3089;48.202;11.510;2023-04-01T00:52:55;7.90;99.90
6118;DHT22;3089;48.202;11.510;2023-04-01T00:55:24;7.90;99.90
6118;DHT22;3089;48.202;11.510;2023-04-01T00:57:55;7.90;99.90
6118;DHT22;3089;48.202;11.510;2023-04-01T01:00:24;7.90;99.90
6118;DHT22;3089;48.202;11.510;2023-04-01T01:02:53;7.90;99.90
6118;DHT22;3089;48.202;11.510;2023-04-01T01:05:29;7.90;99.90
6118;DHT22;3089;48.202;11.510;2023-04-01T01:08:20;7.90;99.90
6118;DHT22;3089;48.202;11.510;2023-04-01T01:10:50;7.90;99.90
6118;DHT22;3089;48.202;11.510;2023-04-01T01:13:25;7.90;99.90
6118;DHT22;3089;48.202;11.510;2023-04-01T01:15:58;7.90;99.90
6118;DHT22;3089;48.202;11.510;2023-04-01T01:18:34;7.90;99.90
6118;DHT22;3089;48.202;11.510;2023-04-01T01:24:17;7.90;99.90
6118;DHT22;3089;48.202;11.510;2023-04-01T01:27:00;7.90;99.90
6118;DHT22;3089;48.202;11.510;2023-04-01T01:32:34;7.90;99.90
6118;DHT22;3089;48.202;11.510;2023-04-01T01:35:20;7.80;99.90
6118;DHT22;3089;48.202;11.510;2023-04-01T01:37:53;7.80;99.90
6118;DHT22;3089;48.202;11.510;2023-04-01T01:40:24;7.70;99.90
6118;DHT22;3089;48.202;11.510;2023-04-01T01:42:56;7.80;99.90
6118;DHT22;3089;48.202;11.510;2023-04-01T01:45:26;7.80;99.90
6118;DHT22;3089;48.202;11.510;2023-04-01T01:47:55;7.80;99.90
6118;DHT22;3089;48.202;11.510;2023-04-01T01:50:26;7.80;99.90
6118;DHT22;3089;48.202;11.510;2023-04-01T01:53:04;7.80;99.90
6118;DHT22;3089;48.202;11.510;2023-04-01T01:55:33;7.80;99.90
6118;DHT22;3089;48.202;11.510;2023-04-01T01:58:07;7.70;99.90
6118;DHT22;3089;48.202;11.510;2023-04-01T02:00:37;7.70;99.90
6118;DHT22;3089;48.202;11.510;2023-04-01T02:03:07;7.70;99.90
6118;DHT22;3089;48.202;11.510;2023-04-01T02:05:36;7.80;99.90
6118;DHT22;3089;48.202;11.510;2023-04-01T02:08:09;7.70;99.90
6118;DHT22;3089;48.202;11.510;2023-04-01T02:10:42;7.80;99.90
6118;DHT22;3089;48.202;11.510;2023-04-01T02:13:16;7.70;99.90
6118;DHT22;3089;48.202;11.510;2023-04-01T02:15:47;7.70;99.90
6118;DHT22;3089;48.202;11.510;2023-04-01T02:18:18;7.70;99.90
6118;DHT22;3089;48.202;11.510;2023-04-01T02:20:49;7.70;99.90
6118;DHT22;3089;48.202;11.510;2023-04-01T02:23:17;7.70;99.90
6118;DHT22;3089;48.202;11.510;2023-04-01T02:25:47;7.70;99.90
6118;DHT22;3089;48.202;11.510;2023-04-01T02:28:17;7.70;99.90
6118;DHT22;3089;48.202;11.510;2023-04-01T02:30:48;7.70;99.90
6118;DHT22;3089;48.202;11.510;2023-04-01T02:33:17;7.70;99.90
6118;DHT22;3089;48.202;11.510;2023-04-01T02:35:48;7.70;99.90
6118;DHT22;3089;48.202;11.510;2023-04-01T02:38:16;7.70;99.90
6118;DHT22;3089;48.202;11.510;2023-04-01T02:40:46;7.70;99.90
6118;DHT22;3089;48.202;11.510;2023-04-01T02:43:14;7.70;99.90
6118;DHT22;3089;48.202;11.510;2023-04-01T02:45:43;7.70;99.90
6118;DHT22;3089;48.202;11.510;2023-04-01T02:48:11;7.70;99.90
6118;DHT22;3089;48.202;11.510;2023-04-01T02:50:39;7.70;99.90
6118;DHT22;3089;48.202;11.510;2023-04-01T02:53:08;7.60;99.90
6118;DHT22;3089;48.202;11.510;2023-04-01T02:55:36;7.60;99.90
6118;DHT22;3089;48.202;11.510;2023-04-01T02:58:04;7.60;99.90
6118;DHT22;3089;48.202;11.510;2023-04-01T03:00:32;7.60;99.90
6118;DHT22;3089;48.202;11.510;2023-04-01T03:03:00;7.60;99.90
6118;DHT22;3089;48.202;11.510;2023-04-01T03:05:29;7.60;99.90
6118;DHT22;3089;48.202;11.510;2023-04-01T03:07:57;7.60;99.90
6118;DHT22;3089;48.202;11.510;2023-04-01T03:10:27;7.60;99.90
6118;DHT22;3089;48.202;11.510;2023-04-01T03:12:54;7.60;99.90
6118;DHT22;3089;48.202;11.510;2023-04-01T03:15:22;7.60;99.90
6118;DHT22;3089;48.202;11.510;2023-04-01T03:17:50;7.60;99.90
6118;DHT22;3089;48.202;11.510;2023-04-01T03:20:18;7.60;99.90
6118;DHT22;3089;48.202;11.510;2023-04-01T03:22:46;7.60;99.90
6118;DHT22;3089;48.202;11.510;2023-04-01T03:25:14;7.60;99.90
6118;DHT22;3089;48.202;11.510;2023-04-01T03:27:43;7.50;99.90
6118;DHT22;3089;48.202;11.510;2023-04-01T03:30:12;7.50;99.90
6118;DHT22;3089;48.202;11.510;2023-04-01T03:32:39;7.50;99.90
6118;DHT22;3089;48.202;11.510;2023-04-01T03:35:08;7.50;99.90
6118;DHT22;3089;48.202;11.510;2023-04-01T03:37:37;7.40;99.90
6118;DHT22;3089;48.202;11.510;2023-04-01T03:40:06;7.50;99.90
6118;DHT22;3089;48.202;11.510;2023-04-01T03:42:34;7.50;99.90
6118;DHT22;3089;48.202;11.510;2023-04-01T03:45:04;7.40;99.90
6118;DHT22;3089;48.202;11.510;2023-04-01T03:47:32;7.40;99.90
6118;DHT22;3089;48.202;11.510;2023-04-01T03:50:00;7.50;99.90
6118;DHT22;3089;48.202;11.510;2023-04-01T03:52:28;7.40;99.90
6118;DHT22;3089;48.202;11.510;2023-04-01T03:54:56;7.40;99.90
6118;DHT22;3089;48.202;11.510;2023-04-01T03:57:24;7.40;99.90
6118;DHT22;3089;48.202;11.510;2023-04-01T03:59:56;7.30;99.90
6118;DHT22;3089;48.202;11.510;2023-04-01T04:02:25;7.50;99.90
6118;DHT22;3089;48.202;11.510;2023-04-01T04:04:53;7.40;99.90
6118;DHT22;3089;48.202;11.510;2023-04-01T04:07:21;7.40;99.90
6118;DHT22;3089;48.202;11.510;2023-04-01T04:09:48;7.40;99.90
6118;DHT22;3089;48.202;11.510;2023-04-01T04:12:16;7.40;99.90
6118;DHT22;3089;48.202;11.510;2023-04-01T04:14:44;7.40;99.90
6118;DHT22;3089;48.202;11.510;2023-04-01T04:17:12;7.40;99.90
6118;DHT22;3089;48.202;11.510;2023-04-01T04:19:44;7.40;99.90
6118;DHT22;3089;48.202;11.510;2023-04-01T04:22:12;7.40;99.90
6118;DHT22;3089;48.202;11.510;2023-04-01T04:24:40;7.40;99.90
6118;DHT22;3089;48.202;11.510;2023-04-01T04:27:07;7.40;99.90
6118;DHT22;3089;48.202;11.510;2023-04-01T04:29:36;7.40;99.90
6118;DHT22;3089;48.202;11.510;2023-04-01T04:32:04;7.40;99.90
6118;DHT22;3089;48.202;11.510;2023-04-01T04:34:32;7.30;99.90
6118;DHT22;3089;48.202;11.510;2023-04-01T04:37:02;7.40;99.90
6118;DHT22;3089;48.202;11.510;2023-04-01T04:39:30;7.40;99.90
6118;DHT22;3089;48.202;11.510;2023-04-01T04:41:58;7.40;99.90
6118;DHT22;3089;48.202;11.510;2023-04-01T04:44:26;7.40;99.90
6118;DHT22;3089;48.202;11.510;2023-04-01T04:46:53;7.40;99.90
6118;DHT22;3089;48.202;11.510;2023-04-01T04:49:25;7.40;99.90
6118;DHT22;3089;48.202;11.510;2023-04-01T04:51:53;7.40;99.90
6118;DHT22;3089;48.202;11.510;2023-04-01T04:54:22;7.40;99.90
6118;DHT22;3089;48.202;11.510;2023-04-01T04:56:51;7.40;99.90
6118;DHT22;3089;48.202;11.510;2023-04-01T04:59:19;7.40;99.90
6118;DHT22;3089;48.202;11.510;2023-04-01T05:01:47;7.40;99.90
6118;DHT22;3089;48.202;11.510;2023-04-01T05:04:15;7.40;99.90
6118;DHT22;3089;48.202;11.510;2023-04-01T05:06:43;7.40;99.90
6118;DHT22;3089;48.202;11.510;2023-04-01T05:09:11;7.40;99.90
6118;DHT22;3089;48.202;11.510;2023-04-01T05:11:41;7.40;99.90
6118;DHT22;3089;48.202;11.510;2023-04-01T05:14:13;7.40;99.90
6118;DHT22;3089;48.202;11.510;2023-04-01T05:16:41;7.40;99.90
6118;DHT22;3089;48.202;11.510;2023-04-01T05:19:09;7.40;99.90
6118;DHT22;3089;48.202;11.510;2023-04-01T05:21:37;7.40;99.90
6118;DHT22;3089;48.202;11.510;2023-04-01T05:24:08;7.40;99.90
6118;DHT22;3089;48.202;11.510;2023-04-01T05:26:37;7.40;99.90
6118;DHT22;3089;48.202;11.510;2023-04-01T05:29:06;7.40;99.90
6118;DHT22;3089;48.202;11.510;2023-04-01T05:31:34;7.40;99.90
6118;DHT22;3089;48.202;11.510;2023-04-01T05:34:01;7.40;99.90
6118;DHT22;3089;48.202;11.510;2023-04-01T05:36:29;7.50;99.90
6118;DHT22;3089;48.202;11.510;2023-04-01T05:38:57;7.40;99.90
6118;DHT22;3089;48.202;11.510;2023-04-01T05:41:25;7.50;99.90
6118;DHT22;3089;48.202;11.510;2023-04-01T05:43:53;7.50;99.90
6118;DHT22;3089;48.202;11.510;2023-04-01T05:46:22;7.50;99.90
6118;DHT22;3089;48.202;11.510;2023-04-01T05:48:50;7.50;99.90
6118;DHT22;3089;48.202;11.510;2023-04-01T05:51:18;8.10;99.90
6118;DHT22;3089;48.202;11.510;2023-04-01T05:53:46;8.50;99.90
6118;DHT22;3089;48.202;11.510;2023-04-01T05:56:14;8.20;99.90
6118;DHT22;3089;48.202;11.510;2023-04-01T05:58:42;7.80;99.90
6118;DHT22;3089;48.202;11.510;2023-04-01T06:01:11;7.80;99.90
6118;DHT22;3089;48.202;11.510;2023-04-01T06:03:43;7.80;99.90
6118;DHT22;3089;48.202;11.510;2023-04-01T06:06:14;8.00;99.90
6118;DHT22;3089;48.202;11.510;2023-04-01T06:08:43;8.10;99.90
6118;DHT22;3089;48.202;11.510;2023-04-01T06:11:19;8.30;99.90
6118;DHT22;3089;48.202;11.510;2023-04-01T06:14:03;8.40;99.90
6118;DHT22;3089;48.202;11.510;2023-04-01T06:16:43;8.40;99.90
6118;DHT22;3089;48.202;11.510;2023-04-01T06:19:26;8.50;99.90
6118;DHT22;3089;48.202;11.510;2023-04-01T06:22:21;8.80;99.90
6118;DHT22;3089;48.202;11.510;2023-04-01T06:25:05;8.80;99.90
6118;DHT22;3089;48.202;11.510;2023-04-01T06:27:48;8.60;99.90
6118;DHT22;3089;48.202;11.510;2023-04-01T06:30:32;8.60;99.90
6118;DHT22;3089;48.202;11.510;2023-04-01T06:33:12;9.50;99.90
6118;DHT22;3089;48.202;11.510;2023-04-01T06:36:08;9.00;99.90
6118;DHT22;3089;48.202;11.510;2023-04-01T06:38:52;9.30;99.90
6118;DHT22;3089;48.202;11.510;2023-04-01T06:41:36;9.10;99.90
6118;DHT22;3089;48.202;11.510;2023-04-01T06:44:13;8.90;99.90
6118;DHT22;3089;48.202;11.510;2023-04-01T06:46:45;9.60;99.90
6118;DHT22;3089;48.202;11.510;2023-04-01T06:49:28;8.90;99.90
6118;DHT22;3089;48.202;11.510;2023-04-01T06:52:11;10.10;99.90
6118;DHT22;3089;48.202;11.510;2023-04-01T06:54:45;10.90;99.90
6118;DHT22;3089;48.202;11.510;2023-04-01T06:57:22;10.70;99.90
6118;DHT22;3089;48.202;11.510;2023-04-01T06:59:53;9.90;99.90
6118;DHT22;3089;48.202;11.510;2023-04-01T07:02:31;9.10;99.90
6118;DHT22;3089;48.202;11.510;2023-04-01T07:05:01;8.90;99.90
6118;DHT22;3089;48.202;11.510;2023-04-01T07:07:34;9.40;99.90
6118;DHT22;3089;48.202;11.510;2023-04-01T07:10:06;9.40;99.90
6118;DHT22;3089;48.202;11.510;2023-04-01T07:12:43;10.20;99.90
6118;DHT22;3089;48.202;11.510;2023-04-01T07:15:18;8.90;99.90
6118;DHT22;3089;48.202;11.510;2023-04-01T07:17:53;9.00;99.90
6118;DHT22;3089;48.202;11.510;2023-04-01T07:20:25;8.90;99.90
6118;DHT22;3089;48.202;11.510;2023-04-01T07:22:58;9.00;99.90
6118;DHT22;3089;48.202;11.510;2023-04-01T07:25:30;9.00;99.90
6118;DHT22;3089;48.202;11.510;2023-04-01T07:28:02;8.90;99.90
6118;DHT22;3089;48.202;11.510;2023-04-01T07:30:37;9.10;99.90
6118;DHT22;3089;48.202;11.510;2023-04-01T07:33:13;9.30;99.90
6118;DHT22;3089;48.202;11.510;2023-04-01T07:35:46;10.10;99.90
6118;DHT22;3089;48.202;11.510;2023-04-01T07:38:22;9.60;99.90
6118;DHT22;3089;48.202;11.510;2023-04-01T07:41:02;9.40;99.90
6118;DHT22;3089;48.202;11.510;2023-04-01T07:43:47;9.20;99.90
6118;DHT22;3089;48.202;11.510;2023-04-01T07:46:32;9.20;99.90
6118;DHT22;3089;48.202;11.510;2023-04-01T07:49:10;9.50;99.90
6118;DHT22;3089;48.202;11.510;2023-04-01T07:51:46;9.20;99.90
6118;DHT22;3089;48.202;11.510;2023-04-01T07:54:20;9.20;99.90
6118;DHT22;3089;48.202;11.510;2023-04-01T07:56:53;9.10;99.90
6118;DHT22;3089;48.202;11.510;2023-04-01T07:59:30;9.10;99.90
6118;DHT22;3089;48.202;11.510;2023-04-01T08:02:08;9.00;99.90
6118;DHT22;3089;48.202;11.510;2023-04-01T08:04:49;9.10;99.90
6118;DHT22;3089;48.202;11.510;2023-04-01T08:07:23;9.20;99.90
6118;DHT22;3089;48.202;11.510;2023-04-01T08:10:00;9.20;99.90
6118;DHT22;3089;48.202;11.510;2023-04-01T08:12:45;9.10;99.90
6118;DHT22;3089;48.202;11.510;2023-04-01T08:15:19;9.20;99.90
6118;DHT22;3089;48.202;11.510;2023-04-01T08:18:02;9.20;99.90
6118;DHT22;3089;48.202;11.510;2023-04-01T08:20:36;9.20;99.90
6118;DHT22;3089;48.202;11.510;2023-04-01T08:23:10;9.40;99.90
6118;DHT22;3089;48.202;11.510;2023-04-01T08:25:44;9.60;99.90
6118;DHT22;3089;48.202;11.510;2023-04-01T08:28:19;9.60;99.90
6118;DHT22;3089;48.202;11.510;2023-04-01T08:30:52;9.70;99.90
6118;DHT22;3089;48.202;11.510;2023-04-01T08:33:24;9.70;99.90
6118;DHT22;3089;48.202;11.510;2023-04-01T08:35:56;9.60;99.90
6118;DHT22;3089;48.202;11.510;2023-04-01T08:38:30;10.30;99.90
6118;DHT22;3089;48.202;11.510;2023-04-01T08:41:02;10.00;99.90
6118;DHT22;3089;48.202;11.510;2023-04-01T08:43:55;10.00;99.90
6118;DHT22;3089;48.202;11.510;2023-04-01T08:46:57;10.40;99.90
6118;DHT22;3089;48.202;11.510;2023-04-01T08:49:51;9.90;99.90
6118;DHT22;3089;48.202;11.510;2023-04-01T08:52:32;10.10;99.90
6118;DHT22;3089;48.202;11.510;2023-04-01T08:55:15;10.00;99.90
6118;DHT22;3089;48.202;11.510;2023-04-01T08:57:56;10.40;99.90
6118;DHT22;3089;48.202;11.510;2023-04-01T09:00:31;10.10;99.90
6118;DHT22;3089;48.202;11.510;2023-04-01T09:06:26;10.40;99.90
6118;DHT22;3089;48.202;11.510;2023-04-01T09:09:25;10.40;99.90
6118;DHT22;3089;48.202;11.510;2023-04-01T09:12:14;11.20;99.90
6118;DHT22;3089;48.202;11.510;2023-04-01T09:15:15;11.00;99.90
6118;DHT22;3089;48.202;11.510;2023-04-01T09:17:57;11.20;99.90
6118;DHT22;3089;48.202;11.510;2023-04-01T09:20:56;10.90;99.90
6118;DHT22;3089;48.202;11.510;2023-04-01T09:23:47;10.50;99.90
6118;DHT22;3089;48.202;11.510;2023-04-01T09:29:30;10.20;99.90
6118;DHT22;3089;48.202;11.510;2023-04-01T09:32:18;10.40;99.90
6118;DHT22;3089;48.202;11.510;2023-04-01T09:34:57;10.50;99.90
6118;DHT22;3089;48.202;11.510;2023-04-01T09:37:35;10.60;99.90
6118;DHT22;3089;48.202;11.510;2023-04-01T09:40:15;10.50;99.90
6118;DHT22;3089;48.202;11.510;2023-04-01T09:42:54;10.60;99.90
6118;DHT22;3089;48.202;11.510;2023-04-01T09:45:44;10.70;99.90
6118;DHT22;3089;48.202;11.510;2023-04-01T09:48:31;10.90;99.90
6118;DHT22;3089;48.202;11.510;2023-04-01T09:51:09;11.10;99.90
6118;DHT22;3089;48.202;11.510;2023-04-01T09:53:52;11.00;99.90
6118;DHT22;3089;48.202;11.510;2023-04-01T09:56:59;10.90;99.90
6118;DHT22;3089;48.202;11.510;2023-04-01T09:59:46;10.80;99.90
6118;DHT22;3089;48.202;11.510;2023-04-01T10:15:18;10.70;99.90
6118;DHT22;3089;48.202;11.510;2023-04-01T10:18:15;10.70;99.90
6118;DHT22;3089;48.202;11.510;2023-04-01T10:21:13;10.90;99.90
6118;DHT22;3089;48.202;11.510;2023-04-01T10:30:04;11.10;99.90
6118;DHT22;3089;48.202;11.510;2023-04-01T10:33:01;11.20;99.90
6118;DHT22;3089;48.202;11.510;2023-04-01T10:36:08;11.20;99.90
6118;DHT22;3089;48.202;11.510;2023-04-01T10:48:10;10.80;99.90
6118;DHT22;3089;48.202;11.510;2023-04-01T10:51:17;10.70;99.90
6118;DHT22;3089;48.202;11.510;2023-04-01T10:54:10;10.60;99.90
6118;DHT22;3089;48.202;11.510;2023-04-01T10:56:54;10.60;99.90
6118;DHT22;3089;48.202;11.510;2023-04-01T10:59:45;10.50;99.90
6118;DHT22;3089;48.202;11.510;2023-04-01T11:02:43;10.50;99.90
6118;DHT22;3089;48.202;11.510;2023-04-01T11:05:54;10.50;99.90
6118;DHT22;3089;48.202;11.510;2023-04-01T11:09:03;10.40;99.90
6118;DHT22;3089;48.202;11.510;2023-04-01T11:15:46;10.60;99.90
6118;DHT22;3089;48.202;11.510;2023-04-01T11:19:08;10.80;99.90
6118;DHT22;3089;48.202;11.510;2023-04-01T11:21:55;10.70;99.90
6118;DHT22;3089;48.202;11.510;2023-04-01T11:24:36;10.80;99.90
6118;DHT22;3089;48.202;11.510;2023-04-01T11:27:20;10.90;99.90
6118;DHT22;3089;48.202;11.510;2023-04-01T11:32:54;10.90;99.90
6118;DHT22;3089;48.202;11.510;2023-04-01T11:35:48;10.80;99.90
6118;DHT22;3089;48.202;11.510;2023-04-01T11:41:26;10.50;99.90
6118;DHT22;3089;48.202;11.510;2023-04-01T11:44:16;10.40;99.90
6118;DHT22;3089;48.202;11.510;2023-04-01T11:47:15;10.40;99.90
6118;DHT22;3089;48.202;11.510;2023-04-01T11:49:55;10.40;99.90
6118;DHT22;3089;48.202;11.510;2023-04-01T11:52:44;10.30;99.90
6118;DHT22;3089;48.202;11.510;2023-04-01T11:55:24;10.20;99.90
6118;DHT22;3089;48.202;11.510;2023-04-01T11:58:21;10.10;99.90
6118;DHT22;3089;48.202;11.510;2023-04-01T12:01:03;10.10;99.90
6118;DHT22;3089;48.202;11.510;2023-04-01T12:06:42;10.10;99.90
6118;DHT22;3089;48.202;11.510;2023-04-01T12:09:20;10.10;99.90
6118;DHT22;3089;48.202;11.510;2023-04-01T12:11:56;10.00;99.90
6118;DHT22;3089;48.202;11.510;2023-04-01T12:14:36;10.10;99.90
6118;DHT22;3089;48.202;11.510;2023-04-01T12:17:11;10.10;99.90
6118;DHT22;3089;48.202;11.510;2023-04-01T12:19:51;10.00;99.90
6118;DHT22;3089;48.202;11.510;2023-04-01T12:22:30;9.90;99.90
6118;DHT22;3089;48.202;11.510;2023-04-01T12:25:18;9.90;99.90
6118;DHT22;3089;48.202;11.510;2023-04-01T12:28:03;9.90;99.90
6118;DHT22;3089;48.202;11.510;2023-04-01T12:30:45;9.90;99.90
6118;DHT22;3089;48.202;11.510;2023-04-01T12:33:47;9.90;99.90
6118;DHT22;3089;48.202;11.510;2023-04-01T12:36:33;9.80;99.90
6118;DHT22;3089;48.202;11.510;2023-04-01T12:39:26;9.90;99.90
6118;DHT22;3089;48.202;11.510;2023-04-01T12:42:05;9.90;99.90
6118;DHT22;3089;48.202;11.510;2023-04-01T12:44:48;9.80;99.90
6118;DHT22;3089;48.202;11.510;2023-04-01T12:47:33;9.80;99.90
6118;DHT22;3089;48.202;11.510;2023-04-01T12:50:19;9.80;99.90
6118;DHT22;3089;48.202;11.510;2023-04-01T12:53:01;9.80;99.90
6118;DHT22;3089;48.202;11.510;2023-04-01T12:55:41;9.80;99.90
6118;DHT22;3089;48.202;11.510;2023-04-01T13:01:52;9.70;99.90
6118;DHT22;3089;48.202;11.510;2023-04-01T13:05:18;9.70;99.90
6118;DHT22;3089;48.202;11.510;2023-04-01T13:08:04;9.70;99.90
6118;DHT22;3089;48.202;11.510;2023-04-01T13:10:45;9.70;99.90
6118;DHT22;3089;48.202;11.510;2023-04-01T13:13:33;9.70;99.90
6118;DHT22;3089;48.202;11.510;2023-04-01T13:16:10;9.70;99.90
6118;DHT22;3089;48.202;11.510;2023-04-01T13:18:49;9.70;99.90
6118;DHT22;3089;48.202;11.510;2023-04-01T13:21:30;9.60;99.90
6118;DHT22;3089;48.202;11.510;2023-04-01T13:24:08;9.60;99.90
6118;DHT22;3089;48.202;11.510;2023-04-01T13:26:47;9.60;99.90
6118;DHT22;3089;48.202;11.510;2023-04-01T13:29:23;9.60;99.90
6118;DHT22;3089;48.202;11.510;2023-04-01T13:32:13;9.50;99.90
6118;DHT22;3089;48.202;11.510;2023-04-01T13:35:00;9.60;99.90
6118;DHT22;3089;48.202;11.510;2023-04-01T13:37:46;9.60;99.90
6118;DHT22;3089;48.202;11.510;2023-04-01T13:40:26;9.60;99.90
6118;DHT22;3089;48.202;11.510;2023-04-01T13:42:59;9.60;99.90
6118;DHT22;3089;48.202;11.510;2023-04-01T13:45:37;9.60;99.90
6118;DHT22;3089;48.202;11.510;2023-04-01T13:48:29;9.60;99.90
6118;DHT22;3089;48.202;11.510;2023-04-01T13:51:26;9.60;99.90
6118;DHT22;3089;48.202;11.510;2023-04-01T13:57:07;9.60;99.90
6118;DHT22;3089;48.202;11.510;2023-04-01T14:00:00;9.70;99.90
6118;DHT22;3089;48.202;11.510;2023-04-01T14:02:50;9.70;99.90
6118;DHT22;3089;48.202;11.510;2023-04-01T14:05:32;9.60;99.90
6118;DHT22;3089;48.202;11.510;2023-04-01T14:08:17;9.60;99.90
6118;DHT22;3089;48.202;11.510;2023-04-01T14:10:55;9.60;99.90
6118;DHT22;3089;48.202;11.510;2023-04-01T14:13:34;9.70;99.90
6118;DHT22;3089;48.202;11.510;2023-04-01T14:16:21;9.70;99.90
6118;DHT22;3089;48.202;11.510;2023-04-01T14:19:08;9.70;99.90
6118;DHT22;3089;48.202;11.510;2023-04-01T14:21:42;9.70;99.90
6118;DHT22;3089;48.202;11.510;2023-04-01T14:24:22;9.70;99.90
6118;DHT22;3089;48.202;11.510;2023-04-01T14:30:20;9.60;99.90
6118;DHT22;3089;48.202;11.510;2023-04-01T14:33:00;9.60;99.90
6118;DHT22;3089;48.202;11.510;2023-04-01T14:35:37;9.70;99.90
6118;DHT22;3089;48.202;11.510;2023-04-01T14:40:56;9.80;99.90
6118;DHT22;3089;48.202;11.510;2023-04-01T14:43:59;9.70;99.90
6118;DHT22;3089;48.202;11.510;2023-04-01T14:49:37;9.80;99.90
6118;DHT22;3089;48.202;11.510;2023-04-01T14:52:13;9.80;99.90
6118;DHT22;3089;48.202;11.510;2023-04-01T14:54:44;9.80;99.90
6118;DHT22;3089;48.202;11.510;2023-04-01T14:57:16;9.70;99.90
6118;DHT22;3089;48.202;11.510;2023-04-01T14:59:53;9.70;99.90
6118;DHT22;3089;48.202;11.510;2023-04-01T15:02:45;9.80;99.90
6118;DHT22;3089;48.202;11.510;2023-04-01T15:05:20;9.70;99.90
6118;DHT22;3089;48.202;11.510;2023-04-01T15:08:09;9.70;99.90
6118;DHT22;3089;48.202;11.510;2023-04-01T15:10:49;9.70;99.90
6118;DHT22;3089;48.202;11.510;2023-04-01T15:13:29;9.70;99.90
6118;DHT22;3089;48.202;11.510;2023-04-01T15:16:07;9.70;99.90
6118;DHT22;3089;48.202;11.510;2023-04-01T15:18:48;9.60;99.90
6118;DHT22;3089;48.202;11.510;2023-04-01T15:21:30;9.60;99.90
6118;DHT22;3089;48.202;11.510;2023-04-01T15:24:06;9.60;99.90
6118;DHT22;3089;48.202;11.510;2023-04-01T15:29:47;9.60;99.90
6118;DHT22;3089;48.202;11.510;2023-04-01T15:32:23;9.60;99.90
6118;DHT22;3089;48.202;11.510;2023-04-01T15:35:00;9.60;99.90
6118;DHT22;3089;48.202;11.510;2023-04-01T15:37:36;9.60;99.90
6118;DHT22;3089;48.202;11.510;2023-04-01T15:40:17;9.50;99.90
6118;DHT22;3089;48.202;11.510;2023-04-01T15:42:55;9.50;99.90
6118;DHT22;3089;48.202;11.510;2023-04-01T15:45:35;9.60;99.90
6118;DHT22;3089;48.202;11.510;2023-04-01T15:48:18;9.60;99.90
6118;DHT22;3089;48.202;11.510;2023-04-01T15:51:07;9.50;99.90
6118;DHT22;3089;48.202;11.510;2023-04-01T15:54:14;9.50;99.90
6118;DHT22;3089;48.202;11.510;2023-04-01T15:56:54;9.50;99.90
6118;DHT22;3089;48.202;11.510;2023-04-01T16:02:23;9.50;99.90
6118;DHT22;3089;48.202;11.510;2023-04-01T16:04:59;9.50;99.90
6118;DHT22;3089;48.202;11.510;2023-04-01T16:07:47;9.50;99.90
6118;DHT22;3089;48.202;11.510;2023-04-01T16:10:22;9.60;99.90
6118;DHT22;3089;48.202;11.510;2023-04-01T16:13:04;9.60;99.90
6118;DHT22;3089;48.202;11.510;2023-04-01T16:15:46;9.50;99.90
6118;DHT22;3089;48.202;11.510;2023-04-01T16:18:36;9.50;99.90
6118;DHT22;3089;48.202;11.510;2023-04-01T16:21:12;9.60;99.90
6118;DHT22;3089;48.202;11.510;2023-04-01T16:23:47;9.60;99.90
6118;DHT22;3089;48.202;11.510;2023-04-01T16:26:22;9.50;99.90
6118;DHT22;3089;48.202;11.510;2023-04-01T16:28:55;9.50;99.90
6118;DHT22;3089;48.202;11.510;2023-04-01T16:31:32;9.40;99.90
6118;DHT22;3089;48.202;11.510;2023-04-01T16:34:08;9.40;99.90
6118;DHT22;3089;48.202;11.510;2023-04-01T16:36:41;9.40;99.90
6118;DHT22;3089;48.202;11.510;2023-04-01T16:39:28;9.40;99.90
6118;DHT22;3089;48.202;11.510;2023-04-01T16:42:13;9.40;99.90
6118;DHT22;3089;48.202;11.510;2023-04-01T16:44:49;9.40;99.90
6118;DHT22;3089;48.202;11.510;2023-04-01T16:47:20;9.30;99.90
6118;DHT22;3089;48.202;11.510;2023-04-01T16:49:52;9.30;99.90
6118;DHT22;3089;48.202;11.510;2023-04-01T16:52:36;9.30;99.90
6118;DHT22;3089;48.202;11.510;2023-04-01T16:55:15;9.30;99.90
6118;DHT22;3089;48.202;11.510;2023-04-01T16:57:48;9.30;99.90
6118;DHT22;3089;48.202;11.510;2023-04-01T17:00:24;9.30;99.90
6118;DHT22;3089;48.202;11.510;2023-04-01T17:03:02;9.30;99.90
6118;DHT22;3089;48.202;11.510;2023-04-01T17:05:42;9.30;99.90
6118;DHT22;3089;48.202;11.510;2023-04-01T17:08:20;9.20;99.90
6118;DHT22;3089;48.202;11.510;2023-04-01T17:10:53;9.20;99.90
6118;DHT22;3089;48.202;11.510;2023-04-01T17:13:34;9.20;99.90
6118;DHT22;3089;48.202;11.510;2023-04-01T17:16:21;9.20;99.90
6118;DHT22;3089;48.202;11.510;2023-04-01T17:18:59;9.20;99.90
6118;DHT22;3089;48.202;11.510;2023-04-01T17:21:50;9.10;99.90
6118;DHT22;3089;48.202;11.510;2023-04-01T17:24:46;9.10;99.90
6118;DHT22;3089;48.202;11.510;2023-04-01T17:27:27;9.10;99.90
6118;DHT22;3089;48.202;11.510;2023-04-01T17:30:14;9.10;99.90
6118;DHT22;3089;48.202;11.510;2023-04-01T17:32:58;9.10;99.90
6118;DHT22;3089;48.202;11.510;2023-04-01T17:35:32;9.10;99.90
6118;DHT22;3089;48.202;11.510;2023-04-01T17:38:12;9.10;99.90
6118;DHT22;3089;48.202;11.510;2023-04-01T17:41:00;9.10;99.90
6118;DHT22;3089;48.202;11.510;2023-04-01T17:43:41;9.00;99.90
6118;DHT22;3089;48.202;11.510;2023-04-01T17:46:28;9.00;99.90
6118;DHT22;3089;48.202;11.510;2023-04-01T17:49:05;9.00;99.90
6118;DHT22;3089;48.202;11.510;2023-04-01T17:51:40;9.00;99.90
6118;DHT22;3089;48.202;11.510;2023-04-01T17:54:21;9.00;99.90
6118;DHT22;3089;48.202;11.510;2023-04-01T17:57:02;9.00;99.90
6118;DHT22;3089;48.202;11.510;2023-04-01T17:59:38;9.00;99.90
6118;DHT22;3089;48.202;11.510;2023-04-01T18:02:20;9.00;99.90
6118;DHT22;3089;48.202;11.510;2023-04-01T18:05:12;9.00;99.90
6118;DHT22;3089;48.202;11.510;2023-04-01T18:08:09;8.90;99.90
6118;DHT22;3089;48.202;11.510;2023-04-01T18:10:41;8.90;99.90
6118;DHT22;3089;48.202;11.510;2023-04-01T18:13:38;8.90;99.90
6118;DHT22;3089;48.202;11.510;2023-04-01T18:16:21;8.90;99.90
6118;DHT22;3089;48.202;11.510;2023-04-01T18:18:56;8.90;99.90
6118;DHT22;3089;48.202;11.510;2023-04-01T18:21:33;8.90;99.90